sensor_id;sensor_type;location;lat;lon;timestamp;P1;durP1;ratioP1;P2;durP2;ratioP2
25111;SDS011;13092;51.996;4.458;2022-12-18T00:00:05;48.87;;;40.00;;
25111;SDS011;13092;51.996;4.458;2022-12-18T00:02:34;54.90;;;42.87;;
25111;SDS011;13092;51.996;4.458;2022-12-18T00:05:03;52.87;;;40.40;;
25111;SDS011;13092;51.996;4.458;2022-12-18T00:07:32;66.03;;;43.00;;
25111;SDS011;13092;51.996;4.458;2022-12-18T00:10:00;53.67;;;40.23;;
25111;SDS011;13092;51.996;4.458;2022-12-18T00:12:28;50.10;;;39.23;;
25111;SDS011;13092;51.996;4.458;2022-12-18T00:14:56;49.03;;;39.40;;
25111;SDS011;13092;51.996;4.458;2022-12-18T00:17:25;46.37;;;41.43;;
25111;SDS011;13092;51.996;4.458;2022-12-18T00:19:53;45.33;;;39.40;;
25111;SDS011;13092;51.996;4.458;2022-12-18T00:22:21;46.00;;;41.03;;
25111;SDS011;13092;51.996;4.458;2022-12-18T00:24:50;55.50;;;40.00;;
25111;SDS011;13092;51.996;4.458;2022-12-18T00:27:18;45.00;;;40.33;;
25111;SDS011;13092;51.996;4.458;2022-12-18T00:29:47;44.50;;;39.30;;
25111;SDS011;13092;51.996;4.458;2022-12-18T00:32:16;47.67;;;42.47;;
25111;SDS011;13092;51.996;4.458;2022-12-18T00:34:46;49.40;;;40.57;;
25111;SDS011;13092;51.996;4.458;2022-12-18T00:37:14;44.80;;;40.00;;
25111;SDS011;13092;51.996;4.458;2022-12-18T00:39:47;48.63;;;41.20;;
25111;SDS011;13092;51.996;4.458;2022-12-18T00:42:16;47.73;;;42.57;;
25111;SDS011;13092;51.996;4.458;2022-12-18T00:45:01;46.90;;;41.67;;
25111;SDS011;13092;51.996;4.458;2022-12-18T00:47:37;47.40;;;42.03;;
25111;SDS011;13092;51.996;4.458;2022-12-18T00:50:07;47.53;;;42.80;;
25111;SDS011;13092;51.996;4.458;2022-12-18T00:52:39;55.87;;;42.50;;
25111;SDS011;13092;51.996;4.458;2022-12-18T00:55:07;52.07;;;41.70;;
25111;SDS011;13092;51.996;4.458;2022-12-18T00:57:36;49.47;;;42.63;;
25111;SDS011;13092;51.996;4.458;2022-12-18T01:00:06;50.17;;;42.90;;
25111;SDS011;13092;51.996;4.458;2022-12-18T01:02:36;53.57;;;43.20;;
25111;SDS011;13092;51.996;4.458;2022-12-18T01:05:04;50.60;;;42.10;;
25111;SDS011;13092;51.996;4.458;2022-12-18T01:07:35;53.97;;;44.13;;
25111;SDS011;13092;51.996;4.458;2022-12-18T01:10:04;54.20;;;42.73;;
25111;SDS011;13092;51.996;4.458;2022-12-18T01:12:33;56.17;;;43.80;;
25111;SDS011;13092;51.996;4.458;2022-12-18T01:15:02;45.73;;;40.67;;
25111;SDS011;13092;51.996;4.458;2022-12-18T01:17:31;56.53;;;43.57;;
25111;SDS011;13092;51.996;4.458;2022-12-18T01:20:00;53.67;;;42.43;;
25111;SDS011;13092;51.996;4.458;2022-12-18T01:22:29;53.07;;;41.10;;
25111;SDS011;13092;51.996;4.458;2022-12-18T01:25:00;51.40;;;42.37;;
25111;SDS011;13092;51.996;4.458;2022-12-18T01:27:30;50.13;;;43.30;;
25111;SDS011;13092;51.996;4.458;2022-12-18T01:29:58;49.63;;;43.00;;
25111;SDS011;13092;51.996;4.458;2022-12-18T01:32:28;49.90;;;41.30;;
25111;SDS011;13092;51.996;4.458;2022-12-18T01:34:57;52.60;;;42.33;;
25111;SDS011;13092;51.996;4.458;2022-12-18T01:37:25;50.30;;;41.70;;
25111;SDS011;13092;51.996;4.458;2022-12-18T01:39:56;48.47;;;42.07;;
25111;SDS011;13092;51.996;4.458;2022-12-18T01:42:24;49.43;;;42.40;;
25111;SDS011;13092;51.996;4.458;2022-12-18T01:44:57;47.43;;;42.33;;
25111;SDS011;13092;51.996;4.458;2022-12-18T01:47:32;45.87;;;40.93;;
25111;SDS011;13092;51.996;4.458;2022-12-18T01:50:04;59.10;;;43.70;;
25111;SDS011;13092;51.996;4.458;2022-12-18T01:52:36;47.30;;;42.00;;
25111;SDS011;13092;51.996;4.458;2022-12-18T01:55:09;46.97;;;41.87;;
25111;SDS011;13092;51.996;4.458;2022-12-18T01:57:39;50.10;;;44.50;;
25111;SDS011;13092;51.996;4.458;2022-12-18T02:00:09;46.30;;;41.43;;
25111;SDS011;13092;51.996;4.458;2022-12-18T02:02:40;48.77;;;43.20;;
25111;SDS011;13092;51.996;4.458;2022-12-18T02:05:09;58.03;;;43.60;;
25111;SDS011;13092;51.996;4.458;2022-12-18T02:07:42;50.53;;;43.37;;
25111;SDS011;13092;51.996;4.458;2022-12-18T02:10:21;48.90;;;42.83;;
25111;SDS011;13092;51.996;4.458;2022-12-18T02:12:56;50.93;;;41.93;;
25111;SDS011;13092;51.996;4.458;2022-12-18T02:15:30;49.33;;;43.73;;
25111;SDS011;13092;51.996;4.458;2022-12-18T02:18:04;50.87;;;42.63;;
25111;SDS011;13092;51.996;4.458;2022-12-18T02:20:36;51.83;;;43.23;;
25111;SDS011;13092;51.996;4.458;2022-12-18T02:23:12;46.90;;;42.03;;
25111;SDS011;13092;51.996;4.458;2022-12-18T02:26:17;47.13;;;42.40;;
25111;SDS011;13092;51.996;4.458;2022-12-18T02:28:49;53.03;;;43.73;;
25111;SDS011;13092;51.996;4.458;2022-12-18T02:31:21;57.53;;;43.47;;
25111;SDS011;13092;51.996;4.458;2022-12-18T02:33:52;50.60;;;43.10;;
25111;SDS011;13092;51.996;4.458;2022-12-18T02:36:26;48.40;;;41.90;;
25111;SDS011;13092;51.996;4.458;2022-12-18T02:38:56;50.60;;;43.87;;
25111;SDS011;13092;51.996;4.458;2022-12-18T02:41:26;49.50;;;43.50;;
25111;SDS011;13092;51.996;4.458;2022-12-18T02:43:56;49.80;;;41.97;;
25111;SDS011;13092;51.996;4.458;2022-12-18T02:46:28;52.00;;;41.83;;
25111;SDS011;13092;51.996;4.458;2022-12-18T02:49:06;49.43;;;44.40;;
25111;SDS011;13092;51.996;4.458;2022-12-18T02:51:50;54.80;;;43.37;;
25111;SDS011;13092;51.996;4.458;2022-12-18T02:54:26;46.37;;;41.30;;
25111;SDS011;13092;51.996;4.458;2022-12-18T02:57:16;49.20;;;42.80;;
25111;SDS011;13092;51.996;4.458;2022-12-18T02:59:54;45.77;;;40.93;;
25111;SDS011;13092;51.996;4.458;2022-12-18T03:02:26;46.70;;;41.67;;
25111;SDS011;13092;51.996;4.458;2022-12-18T03:05:01;47.40;;;41.47;;
25111;SDS011;13092;51.996;4.458;2022-12-18T03:07:36;47.60;;;42.43;;
25111;SDS011;13092;51.996;4.458;2022-12-18T03:10:09;47.03;;;40.90;;
25111;SDS011;13092;51.996;4.458;2022-12-18T03:12:43;56.70;;;42.20;;
25111;SDS011;13092;51.996;4.458;2022-12-18T03:15:16;46.77;;;41.63;;
25111;SDS011;13092;51.996;4.458;2022-12-18T03:17:49;48.00;;;41.90;;
25111;SDS011;13092;51.996;4.458;2022-12-18T03:20:21;47.73;;;42.60;;
25111;SDS011;13092;51.996;4.458;2022-12-18T03:22:53;48.83;;;42.13;;
25111;SDS011;13092;51.996;4.458;2022-12-18T03:25:27;54.37;;;41.33;;
25111;SDS011;13092;51.996;4.458;2022-12-18T03:27:59;51.27;;;41.50;;
25111;SDS011;13092;51.996;4.458;2022-12-18T03:30:29;44.37;;;39.63;;
25111;SDS011;13092;51.996;4.458;2022-12-18T03:33:02;44.67;;;40.33;;
25111;SDS011;13092;51.996;4.458;2022-12-18T03:35:36;50.33;;;40.50;;
25111;SDS011;13092;51.996;4.458;2022-12-18T03:38:07;46.73;;;40.13;;
25111;SDS011;13092;51.996;4.458;2022-12-18T03:40:39;45.63;;;40.03;;
25111;SDS011;13092;51.996;4.458;2022-12-18T03:43:20;44.90;;;40.17;;
25111;SDS011;13092;51.996;4.458;2022-12-18T03:46:05;43.27;;;38.80;;
25111;SDS011;13092;51.996;4.458;2022-12-18T03:48:38;50.27;;;40.57;;
25111;SDS011;13092;51.996;4.458;2022-12-18T03:51:11;46.00;;;41.00;;
25111;SDS011;13092;51.996;4.458;2022-12-18T03:53:47;45.20;;;40.47;;
25111;SDS011;13092;51.996;4.458;2022-12-18T03:56:20;45.33;;;40.40;;
25111;SDS011;13092;51.996;4.458;2022-12-18T03:58:52;47.63;;;41.73;;
25111;SDS011;13092;51.996;4.458;2022-12-18T04:01:23;46.23;;;41.20;;
25111;SDS011;13092;51.996;4.458;2022-12-18T04:03:57;48.70;;;39.90;;
25111;SDS011;13092;51.996;4.458;2022-12-18T04:06:27;51.87;;;42.17;;
25111;SDS011;13092;51.996;4.458;2022-12-18T04:08:56;49.37;;;41.00;;
25111;SDS011;13092;51.996;4.458;2022-12-18T04:11:25;54.20;;;40.83;;
25111;SDS011;13092;51.996;4.458;2022-12-18T04:13:57;51.80;;;41.13;;
25111;SDS011;13092;51.996;4.458;2022-12-18T04:16:29;46.00;;;39.20;;
25111;SDS011;13092;51.996;4.458;2022-12-18T04:18:57;49.03;;;42.27;;
25111;SDS011;13092;51.996;4.458;2022-12-18T04:21:25;47.90;;;42.73;;
25111;SDS011;13092;51.996;4.458;2022-12-18T04:23:53;55.33;;;43.00;;
25111;SDS011;13092;51.996;4.458;2022-12-18T04:26:22;48.80;;;43.20;;
25111;SDS011;13092;51.996;4.458;2022-12-18T04:28:50;46.17;;;40.60;;
25111;SDS011;13092;51.996;4.458;2022-12-18T04:31:19;45.40;;;40.47;;
25111;SDS011;13092;51.996;4.458;2022-12-18T04:33:48;52.43;;;41.73;;
25111;SDS011;13092;51.996;4.458;2022-12-18T04:36:16;45.97;;;39.20;;
25111;SDS011;13092;51.996;4.458;2022-12-18T04:38:44;47.93;;;41.13;;
25111;SDS011;13092;51.996;4.458;2022-12-18T04:41:12;98.63;;;45.63;;
25111;SDS011;13092;51.996;4.458;2022-12-18T04:43:40;50.50;;;40.57;;
25111;SDS011;13092;51.996;4.458;2022-12-18T04:46:08;54.80;;;41.07;;
25111;SDS011;13092;51.996;4.458;2022-12-18T04:48:38;50.57;;;40.87;;
25111;SDS011;13092;51.996;4.458;2022-12-18T04:51:07;49.33;;;42.57;;
25111;SDS011;13092;51.996;4.458;2022-12-18T04:53:35;48.53;;;43.30;;
25111;SDS011;13092;51.996;4.458;2022-12-18T04:56:05;48.97;;;42.07;;
25111;SDS011;13092;51.996;4.458;2022-12-18T04:58:35;47.77;;;42.40;;
25111;SDS011;13092;51.996;4.458;2022-12-18T05:01:03;47.73;;;42.67;;
25111;SDS011;13092;51.996;4.458;2022-12-18T05:03:31;45.47;;;40.97;;
25111;SDS011;13092;51.996;4.458;2022-12-18T05:06:04;45.37;;;40.63;;
25111;SDS011;13092;51.996;4.458;2022-12-18T05:08:33;44.33;;;39.83;;
25111;SDS011;13092;51.996;4.458;2022-12-18T05:11:01;47.63;;;42.30;;
25111;SDS011;13092;51.996;4.458;2022-12-18T05:13:31;44.90;;;40.60;;
25111;SDS011;13092;51.996;4.458;2022-12-18T05:16:00;45.27;;;40.47;;
25111;SDS011;13092;51.996;4.458;2022-12-18T05:18:29;46.00;;;40.37;;
25111;SDS011;13092;51.996;4.458;2022-12-18T05:20:57;46.07;;;41.20;;
25111;SDS011;13092;51.996;4.458;2022-12-18T05:23:28;45.23;;;40.43;;
25111;SDS011;13092;51.996;4.458;2022-12-18T05:25:56;44.33;;;39.67;;
25111;SDS011;13092;51.996;4.458;2022-12-18T05:28:26;46.70;;;41.83;;
25111;SDS011;13092;51.996;4.458;2022-12-18T05:30:58;44.37;;;39.97;;
25111;SDS011;13092;51.996;4.458;2022-12-18T05:33:29;43.87;;;39.83;;
25111;SDS011;13092;51.996;4.458;2022-12-18T05:36:00;44.73;;;40.30;;
25111;SDS011;13092;51.996;4.458;2022-12-18T05:38:31;44.40;;;39.90;;
25111;SDS011;13092;51.996;4.458;2022-12-18T05:41:01;43.83;;;39.27;;
25111;SDS011;13092;51.996;4.458;2022-12-18T05:43:30;45.00;;;40.33;;
25111;SDS011;13092;51.996;4.458;2022-12-18T05:46:03;45.37;;;41.00;;
25111;SDS011;13092;51.996;4.458;2022-12-18T05:48:32;43.87;;;39.80;;
25111;SDS011;13092;51.996;4.458;2022-12-18T05:51:05;43.30;;;39.20;;
25111;SDS011;13092;51.996;4.458;2022-12-18T05:53:36;45.03;;;40.43;;
25111;SDS011;13092;51.996;4.458;2022-12-18T05:56:06;43.60;;;39.30;;
25111;SDS011;13092;51.996;4.458;2022-12-18T05:58:36;45.10;;;40.60;;
25111;SDS011;13092;51.996;4.458;2022-12-18T06:01:08;42.93;;;39.03;;
25111;SDS011;13092;51.996;4.458;2022-12-18T06:03:38;42.90;;;38.77;;
25111;SDS011;13092;51.996;4.458;2022-12-18T06:06:14;44.63;;;40.07;;
25111;SDS011;13092;51.996;4.458;2022-12-18T06:08:44;43.50;;;39.17;;
25111;SDS011;13092;51.996;4.458;2022-12-18T06:11:12;42.57;;;38.33;;
25111;SDS011;13092;51.996;4.458;2022-12-18T06:13:44;43.90;;;39.93;;
25111;SDS011;13092;51.996;4.458;2022-12-18T06:16:12;42.90;;;39.00;;
25111;SDS011;13092;51.996;4.458;2022-12-18T06:18:40;43.03;;;39.10;;
25111;SDS011;13092;51.996;4.458;2022-12-18T06:21:08;44.97;;;40.37;;
25111;SDS011;13092;51.996;4.458;2022-12-18T06:23:36;43.13;;;38.87;;
25111;SDS011;13092;51.996;4.458;2022-12-18T06:26:08;45.87;;;41.27;;
25111;SDS011;13092;51.996;4.458;2022-12-18T06:28:37;43.87;;;40.00;;
25111;SDS011;13092;51.996;4.458;2022-12-18T06:31:06;42.13;;;38.33;;
25111;SDS011;13092;51.996;4.458;2022-12-18T06:33:34;42.30;;;38.67;;
25111;SDS011;13092;51.996;4.458;2022-12-18T06:36:04;41.93;;;37.87;;
25111;SDS011;13092;51.996;4.458;2022-12-18T06:38:34;42.27;;;38.30;;
25111;SDS011;13092;51.996;4.458;2022-12-18T06:41:07;43.63;;;39.33;;
25111;SDS011;13092;51.996;4.458;2022-12-18T06:43:35;44.87;;;40.20;;
25111;SDS011;13092;51.996;4.458;2022-12-18T06:46:04;41.53;;;37.40;;
25111;SDS011;13092;51.996;4.458;2022-12-18T06:48:34;45.03;;;40.63;;
25111;SDS011;13092;51.996;4.458;2022-12-18T06:51:03;45.07;;;40.97;;
25111;SDS011;13092;51.996;4.458;2022-12-18T06:53:31;44.33;;;40.27;;
25111;SDS011;13092;51.996;4.458;2022-12-18T06:56:00;41.23;;;37.50;;
25111;SDS011;13092;51.996;4.458;2022-12-18T06:58:36;43.63;;;39.03;;
25111;SDS011;13092;51.996;4.458;2022-12-18T07:01:05;42.03;;;38.43;;
25111;SDS011;13092;51.996;4.458;2022-12-18T07:03:35;41.73;;;37.73;;
25111;SDS011;13092;51.996;4.458;2022-12-18T07:06:04;39.83;;;36.23;;
25111;SDS011;13092;51.996;4.458;2022-12-18T07:08:32;41.90;;;38.10;;
25111;SDS011;13092;51.996;4.458;2022-12-18T07:11:02;40.30;;;36.13;;
25111;SDS011;13092;51.996;4.458;2022-12-18T07:13:32;38.50;;;34.67;;
25111;SDS011;13092;51.996;4.458;2022-12-18T07:16:05;40.03;;;36.23;;
25111;SDS011;13092;51.996;4.458;2022-12-18T07:18:43;39.20;;;35.60;;
25111;SDS011;13092;51.996;4.458;2022-12-18T07:21:15;38.50;;;35.10;;
25111;SDS011;13092;51.996;4.458;2022-12-18T07:23:44;37.13;;;34.03;;
25111;SDS011;13092;51.996;4.458;2022-12-18T07:26:15;37.03;;;33.93;;
25111;SDS011;13092;51.996;4.458;2022-12-18T07:28:45;38.37;;;34.97;;
25111;SDS011;13092;51.996;4.458;2022-12-18T07:31:15;38.80;;;35.03;;
25111;SDS011;13092;51.996;4.458;2022-12-18T07:33:47;38.00;;;34.73;;
25111;SDS011;13092;51.996;4.458;2022-12-18T07:36:15;37.23;;;33.90;;
25111;SDS011;13092;51.996;4.458;2022-12-18T07:38:46;37.27;;;33.80;;
25111;SDS011;13092;51.996;4.458;2022-12-18T07:41:15;35.33;;;32.20;;
25111;SDS011;13092;51.996;4.458;2022-12-18T07:43:44;38.00;;;34.50;;
25111;SDS011;13092;51.996;4.458;2022-12-18T07:46:14;36.43;;;33.23;;
25111;SDS011;13092;51.996;4.458;2022-12-18T07:48:44;37.27;;;34.03;;
25111;SDS011;13092;51.996;4.458;2022-12-18T07:51:17;35.73;;;32.57;;
25111;SDS011;13092;51.996;4.458;2022-12-18T07:53:46;34.50;;;31.53;;
25111;SDS011;13092;51.996;4.458;2022-12-18T07:56:17;36.10;;;32.93;;
25111;SDS011;13092;51.996;4.458;2022-12-18T07:58:56;36.13;;;32.77;;
25111;SDS011;13092;51.996;4.458;2022-12-18T08:01:26;33.07;;;30.27;;
25111;SDS011;13092;51.996;4.458;2022-12-18T08:03:55;32.87;;;29.90;;
25111;SDS011;13092;51.996;4.458;2022-12-18T08:06:24;33.00;;;29.97;;
25111;SDS011;13092;51.996;4.458;2022-12-18T08:08:52;32.10;;;29.20;;
25111;SDS011;13092;51.996;4.458;2022-12-18T08:11:22;31.97;;;29.17;;
25111;SDS011;13092;51.996;4.458;2022-12-18T08:13:52;32.17;;;29.17;;
25111;SDS011;13092;51.996;4.458;2022-12-18T08:16:21;32.57;;;29.40;;
25111;SDS011;13092;51.996;4.458;2022-12-18T08:18:52;33.03;;;29.80;;
25111;SDS011;13092;51.996;4.458;2022-12-18T08:21:22;30.90;;;28.20;;
25111;SDS011;13092;51.996;4.458;2022-12-18T08:23:53;30.70;;;28.00;;
25111;SDS011;13092;51.996;4.458;2022-12-18T08:26:23;31.53;;;28.73;;
25111;SDS011;13092;51.996;4.458;2022-12-18T08:28:53;31.63;;;28.87;;
25111;SDS011;13092;51.996;4.458;2022-12-18T08:31:23;31.27;;;28.77;;
25111;SDS011;13092;51.996;4.458;2022-12-18T08:33:54;33.00;;;30.30;;
25111;SDS011;13092;51.996;4.458;2022-12-18T08:36:23;31.40;;;28.70;;
25111;SDS011;13092;51.996;4.458;2022-12-18T08:38:52;30.80;;;28.10;;
25111;SDS011;13092;51.996;4.458;2022-12-18T08:41:21;30.40;;;27.73;;
25111;SDS011;13092;51.996;4.458;2022-12-18T08:43:49;28.60;;;26.10;;
25111;SDS011;13092;51.996;4.458;2022-12-18T08:46:35;30.73;;;28.03;;
25111;SDS011;13092;51.996;4.458;2022-12-18T08:49:06;30.87;;;27.90;;
25111;SDS011;13092;51.996;4.458;2022-12-18T08:51:35;30.87;;;28.27;;
25111;SDS011;13092;51.996;4.458;2022-12-18T08:54:04;29.70;;;27.13;;
25111;SDS011;13092;51.996;4.458;2022-12-18T08:56:33;31.83;;;28.93;;
25111;SDS011;13092;51.996;4.458;2022-12-18T08:59:01;30.03;;;27.40;;
25111;SDS011;13092;51.996;4.458;2022-12-18T09:01:30;28.73;;;26.20;;
25111;SDS011;13092;51.996;4.458;2022-12-18T09:04:00;27.30;;;24.70;;
25111;SDS011;13092;51.996;4.458;2022-12-18T09:06:29;27.60;;;25.20;;
25111;SDS011;13092;51.996;4.458;2022-12-18T09:08:58;27.67;;;25.17;;
25111;SDS011;13092;51.996;4.458;2022-12-18T09:11:26;28.03;;;25.50;;
25111;SDS011;13092;51.996;4.458;2022-12-18T09:13:55;27.93;;;25.53;;
25111;SDS011;13092;51.996;4.458;2022-12-18T09:16:25;27.90;;;25.37;;
25111;SDS011;13092;51.996;4.458;2022-12-18T09:18:58;25.03;;;22.80;;
25111;SDS011;13092;51.996;4.458;2022-12-18T09:21:27;25.67;;;23.30;;
25111;SDS011;13092;51.996;4.458;2022-12-18T09:23:59;29.13;;;26.27;;
25111;SDS011;13092;51.996;4.458;2022-12-18T09:26:27;28.47;;;25.97;;
25111;SDS011;13092;51.996;4.458;2022-12-18T09:28:55;26.67;;;24.27;;
25111;SDS011;13092;51.996;4.458;2022-12-18T09:31:23;27.97;;;25.37;;
25111;SDS011;13092;51.996;4.458;2022-12-18T09:33:52;26.27;;;23.93;;
25111;SDS011;13092;51.996;4.458;2022-12-18T09:36:22;27.00;;;24.63;;
25111;SDS011;13092;51.996;4.458;2022-12-18T09:38:50;27.83;;;25.10;;
25111;SDS011;13092;51.996;4.458;2022-12-18T09:41:31;26.77;;;24.33;;
25111;SDS011;13092;51.996;4.458;2022-12-18T09:44:10;26.67;;;24.40;;
25111;SDS011;13092;51.996;4.458;2022-12-18T09:46:46;27.03;;;24.63;;
25111;SDS011;13092;51.996;4.458;2022-12-18T09:49:18;27.43;;;24.80;;
25111;SDS011;13092;51.996;4.458;2022-12-18T09:51:52;28.47;;;25.50;;
25111;SDS011;13092;51.996;4.458;2022-12-18T09:54:24;27.70;;;25.20;;
25111;SDS011;13092;51.996;4.458;2022-12-18T09:56:59;27.33;;;24.97;;
25111;SDS011;13092;51.996;4.458;2022-12-18T09:59:29;28.97;;;26.27;;
25111;SDS011;13092;51.996;4.458;2022-12-18T10:02:11;27.20;;;24.90;;
25111;SDS011;13092;51.996;4.458;2022-12-18T10:04:41;28.30;;;25.63;;
25111;SDS011;13092;51.996;4.458;2022-12-18T10:07:11;25.97;;;23.80;;
25111;SDS011;13092;51.996;4.458;2022-12-18T10:09:46;27.97;;;25.47;;
25111;SDS011;13092;51.996;4.458;2022-12-18T10:12:23;26.17;;;23.67;;
25111;SDS011;13092;51.996;4.458;2022-12-18T10:15:01;26.17;;;23.53;;
25111;SDS011;13092;51.996;4.458;2022-12-18T10:17:36;24.27;;;21.97;;
25111;SDS011;13092;51.996;4.458;2022-12-18T10:20:16;24.30;;;21.70;;
25111;SDS011;13092;51.996;4.458;2022-12-18T10:22:51;26.00;;;23.30;;
25111;SDS011;13092;51.996;4.458;2022-12-18T10:25:26;24.37;;;22.13;;
25111;SDS011;13092;51.996;4.458;2022-12-18T10:28:07;24.43;;;22.00;;
25111;SDS011;13092;51.996;4.458;2022-12-18T10:30:41;23.20;;;21.00;;
25111;SDS011;13092;51.996;4.458;2022-12-18T10:33:12;22.23;;;20.13;;
25111;SDS011;13092;51.996;4.458;2022-12-18T10:35:47;22.60;;;20.40;;
25111;SDS011;13092;51.996;4.458;2022-12-18T10:38:21;25.27;;;22.10;;
25111;SDS011;13092;51.996;4.458;2022-12-18T10:40:53;24.53;;;22.33;;
25111;SDS011;13092;51.996;4.458;2022-12-18T10:43:24;24.07;;;21.77;;
25111;SDS011;13092;51.996;4.458;2022-12-18T10:48:48;23.57;;;21.07;;
25111;SDS011;13092;51.996;4.458;2022-12-18T10:51:20;24.73;;;21.93;;
25111;SDS011;13092;51.996;4.458;2022-12-18T10:53:56;23.90;;;20.80;;
25111;SDS011;13092;51.996;4.458;2022-12-18T10:56:27;24.07;;;21.87;;
25111;SDS011;13092;51.996;4.458;2022-12-18T10:59:00;24.97;;;22.27;;
25111;SDS011;13092;51.996;4.458;2022-12-18T11:01:33;21.60;;;19.47;;
25111;SDS011;13092;51.996;4.458;2022-12-18T11:04:15;22.93;;;20.83;;
25111;SDS011;13092;51.996;4.458;2022-12-18T11:06:55;23.23;;;20.83;;
25111;SDS011;13092;51.996;4.458;2022-12-18T11:09:26;24.53;;;22.13;;
25111;SDS011;13092;51.996;4.458;2022-12-18T11:11:55;25.37;;;22.00;;
25111;SDS011;13092;51.996;4.458;2022-12-18T11:14:28;23.23;;;20.93;;
25111;SDS011;13092;51.996;4.458;2022-12-18T11:16:58;23.17;;;21.07;;
25111;SDS011;13092;51.996;4.458;2022-12-18T11:19:51;23.00;;;20.17;;
25111;SDS011;13092;51.996;4.458;2022-12-18T11:22:21;21.10;;;18.97;;
25111;SDS011;13092;51.996;4.458;2022-12-18T11:24:53;24.00;;;21.40;;
25111;SDS011;13092;51.996;4.458;2022-12-18T11:27:47;22.33;;;20.13;;
25111;SDS011;13092;51.996;4.458;2022-12-18T11:30:22;22.80;;;20.40;;
25111;SDS011;13092;51.996;4.458;2022-12-18T11:32:52;23.90;;;21.47;;
25111;SDS011;13092;51.996;4.458;2022-12-18T11:35:25;21.80;;;19.80;;
25111;SDS011;13092;51.996;4.458;2022-12-18T11:38:04;22.90;;;20.60;;
25111;SDS011;13092;51.996;4.458;2022-12-18T11:40:38;21.50;;;19.33;;
25111;SDS011;13092;51.996;4.458;2022-12-18T11:43:10;22.97;;;20.70;;
25111;SDS011;13092;51.996;4.458;2022-12-18T11:45:45;21.07;;;19.07;;
25111;SDS011;13092;51.996;4.458;2022-12-18T11:48:21;21.33;;;19.33;;
25111;SDS011;13092;51.996;4.458;2022-12-18T11:50:53;21.73;;;19.60;;
25111;SDS011;13092;51.996;4.458;2022-12-18T11:53:23;19.40;;;17.43;;
25111;SDS011;13092;51.996;4.458;2022-12-18T11:55:56;21.53;;;19.33;;
25111;SDS011;13092;51.996;4.458;2022-12-18T11:58:33;21.00;;;18.90;;
25111;SDS011;13092;51.996;4.458;2022-12-18T12:01:15;20.20;;;18.20;;
25111;SDS011;13092;51.996;4.458;2022-12-18T12:06:52;19.73;;;17.67;;
25111;SDS011;13092;51.996;4.458;2022-12-18T12:09:30;19.73;;;17.83;;
25111;SDS011;13092;51.996;4.458;2022-12-18T12:12:12;22.30;;;19.93;;
25111;SDS011;13092;51.996;4.458;2022-12-18T12:14:54;18.17;;;16.27;;
25111;SDS011;13092;51.996;4.458;2022-12-18T12:17:37;18.17;;;15.93;;
25111;SDS011;13092;51.996;4.458;2022-12-18T12:20:16;17.37;;;15.57;;
25111;SDS011;13092;51.996;4.458;2022-12-18T12:22:49;17.13;;;15.33;;
25111;SDS011;13092;51.996;4.458;2022-12-18T12:25:29;18.17;;;16.23;;
25111;SDS011;13092;51.996;4.458;2022-12-18T12:28:11;20.00;;;15.60;;
25111;SDS011;13092;51.996;4.458;2022-12-18T12:30:54;19.10;;;15.67;;
25111;SDS011;13092;51.996;4.458;2022-12-18T12:33:36;17.13;;;15.37;;
25111;SDS011;13092;51.996;4.458;2022-12-18T12:36:15;18.67;;;15.27;;
25111;SDS011;13092;51.996;4.458;2022-12-18T12:38:49;16.83;;;15.03;;
25111;SDS011;13092;51.996;4.458;2022-12-18T12:41:23;19.77;;;15.87;;
25111;SDS011;13092;51.996;4.458;2022-12-18T12:44:13;18.00;;;15.07;;
25111;SDS011;13092;51.996;4.458;2022-12-18T12:46:43;18.97;;;14.83;;
25111;SDS011;13092;51.996;4.458;2022-12-18T12:49:15;19.40;;;15.47;;
25111;SDS011;13092;51.996;4.458;2022-12-18T12:51:50;18.67;;;15.50;;
25111;SDS011;13092;51.996;4.458;2022-12-18T12:54:27;17.33;;;15.10;;
25111;SDS011;13092;51.996;4.458;2022-12-18T12:56:57;19.57;;;15.03;;
25111;SDS011;13092;51.996;4.458;2022-12-18T12:59:34;19.80;;;15.63;;
25111;SDS011;13092;51.996;4.458;2022-12-18T13:02:14;18.37;;;14.90;;
25111;SDS011;13092;51.996;4.458;2022-12-18T13:04:52;18.03;;;15.67;;
25111;SDS011;13092;51.996;4.458;2022-12-18T13:07:26;19.03;;;14.63;;
25111;SDS011;13092;51.996;4.458;2022-12-18T13:13:04;16.93;;;15.03;;
25111;SDS011;13092;51.996;4.458;2022-12-18T13:15:40;19.67;;;14.73;;
25111;SDS011;13092;51.996;4.458;2022-12-18T13:18:13;15.83;;;13.00;;
25111;SDS011;13092;51.996;4.458;2022-12-18T13:20:46;17.43;;;14.17;;
25111;SDS011;13092;51.996;4.458;2022-12-18T13:23:36;19.10;;;15.37;;
25111;SDS011;13092;51.996;4.458;2022-12-18T13:29:02;20.63;;;16.40;;
25111;SDS011;13092;51.996;4.458;2022-12-18T13:34:28;19.70;;;15.47;;
25111;SDS011;13092;51.996;4.458;2022-12-18T13:43:24;16.57;;;14.50;;
25111;SDS011;13092;51.996;4.458;2022-12-18T13:46:18;19.50;;;15.47;;
25111;SDS011;13092;51.996;4.458;2022-12-18T13:48:57;17.87;;;14.83;;
25111;SDS011;13092;51.996;4.458;2022-12-18T13:51:29;18.07;;;13.70;;
25111;SDS011;13092;51.996;4.458;2022-12-18T13:54:00;19.87;;;16.10;;
25111;SDS011;13092;51.996;4.458;2022-12-18T13:56:42;17.73;;;15.80;;
25111;SDS011;13092;51.996;4.458;2022-12-18T13:59:17;16.50;;;14.77;;
25111;SDS011;13092;51.996;4.458;2022-12-18T14:01:51;18.40;;;15.53;;
25111;SDS011;13092;51.996;4.458;2022-12-18T14:04:24;18.73;;;15.33;;
25111;SDS011;13092;51.996;4.458;2022-12-18T14:06:58;19.67;;;16.17;;
25111;SDS011;13092;51.996;4.458;2022-12-18T14:09:34;20.07;;;16.70;;
25111;SDS011;13092;51.996;4.458;2022-12-18T14:12:14;20.63;;;16.10;;
25111;SDS011;13092;51.996;4.458;2022-12-18T14:15:06;20.50;;;15.20;;
25111;SDS011;13092;51.996;4.458;2022-12-18T14:17:46;18.83;;;16.73;;
25111;SDS011;13092;51.996;4.458;2022-12-18T14:20:14;19.47;;;16.67;;
25111;SDS011;13092;51.996;4.458;2022-12-18T14:22:47;19.77;;;16.53;;
25111;SDS011;13092;51.996;4.458;2022-12-18T14:25:17;19.53;;;16.37;;
25111;SDS011;13092;51.996;4.458;2022-12-18T14:27:49;19.30;;;15.70;;
25111;SDS011;13092;51.996;4.458;2022-12-18T14:30:28;21.13;;;15.93;;
25111;SDS011;13092;51.996;4.458;2022-12-18T14:33:04;19.80;;;16.00;;
25111;SDS011;13092;51.996;4.458;2022-12-18T14:35:39;20.53;;;15.40;;
25111;SDS011;13092;51.996;4.458;2022-12-18T14:38:09;21.10;;;15.37;;
25111;SDS011;13092;51.996;4.458;2022-12-18T14:40:53;18.83;;;16.83;;
25111;SDS011;13092;51.996;4.458;2022-12-18T14:43:28;17.90;;;15.50;;
25111;SDS011;13092;51.996;4.458;2022-12-18T14:46:00;20.80;;;13.93;;
25111;SDS011;13092;51.996;4.458;2022-12-18T14:48:36;20.13;;;14.90;;
25111;SDS011;13092;51.996;4.458;2022-12-18T14:51:12;20.40;;;15.10;;
25111;SDS011;13092;51.996;4.458;2022-12-18T14:53:44;20.30;;;15.87;;
25111;SDS011;13092;51.996;4.458;2022-12-18T14:56:21;16.43;;;14.63;;
25111;SDS011;13092;51.996;4.458;2022-12-18T14:58:54;16.43;;;14.67;;
25111;SDS011;13092;51.996;4.458;2022-12-18T15:01:27;16.93;;;15.10;;
25111;SDS011;13092;51.996;4.458;2022-12-18T15:03:58;19.57;;;15.63;;
25111;SDS011;13092;51.996;4.458;2022-12-18T15:06:32;18.73;;;15.03;;
25111;SDS011;13092;51.996;4.458;2022-12-18T15:09:03;20.20;;;15.43;;
25111;SDS011;13092;51.996;4.458;2022-12-18T15:11:44;18.07;;;15.17;;